Portada
METAR-TAF:

METAR-TAF

Aeroports :

Manado, Indonèsia

latitud: 01-32N, longitud: 124-55E, altitud: 80 m

Observació

L'informe es va fer fa 25 minuts, a les 17:00 UTC
Vent 2 kt amb direcció variable
Temperatura 23°C
Humitat 94%
Pressió 1009 hPa
Visibilitat: 8000 m
Núvols disperses a una alçada de 1900 ft

METAR: WAMM 251700Z VRB02KT 8000 SCT019 23/22 Q1009 NOSIG

Hora: 00:25 (17:25 UTC)

Pronòstic

L'informe es va fer fa 6 hores i 25 minuts, a les 11:00 UTC
Pronòstic vàlid del 25 a les 12 UTC al 26 a les 18 UTC
Vent 2 kt amb direcció variable
Visibilitat: 9000 m
Núvols disperses a una alçada de 1800 ft
Temporalment
l' 25 a les 12 UTC al 25 a les 15 UTC
Vent 6 kt del Nord/Nord-Oest
Visibilitat: 5000 m
Escasses núvols a una alçada de 1700 ft, Cumulonimbus.
pluja

TAF: WAMM 251100Z 2512/2618 VRB02KT 9000 SCT018 TEMPO 2512/2515 33006KT 5000 RA FEW017CB

Observacions i pronòstics meteorològics de més de 4000 aeroports (METAR i TAF).

Les estacions disponibles són els punts grocs i vermells al mapa.

Posi el ratolí al punt desitjat per veure el nom de l'estació.

Feu clic per veure les observacions i els pronòstics meteorològics.

Per canviar el mapa: feu clic els botons verds amb una creu de color negre per apropar; al botó verd amb un guió per allunyar la imatge; o en les fletxes verdes per a mapes adjacents.


METAR-TAF: